Time;durP1;ratioP1;P1;durP2;ratioP2;P2;SDS_P1;SDS_P2;PMS_P1;PMS_P2;Temp;Humidity;BMP_temperature;BMP_pressure;BME280_temperature;BME280_humidity;BME280_pressure;Samples;Min_cycle;Max_cycle;Signal;HPM_P1;HPM_P2
2024/02/24 00:00:43;;;;;;;1.33;1.10;;;;;7.10;96628.00;;;;4857761;29;20149;-66
2024/02/24 00:03:09;;;;;;;1.27;0.80;;;;;7.10;96629.00;;;;4856988;29;20077;-66
2024/02/24 00:05:36;;;;;;;1.50;1.00;;;;;7.10;96630.00;;;;4841738;29;20149;-66
2024/02/24 00:08:03;;;;;;;1.25;0.90;;;;;7.10;96630.00;;;;4842904;29;20124;-66
2024/02/24 00:10:30;;;;;;;1.25;1.00;;;;;7.30;96630.00;;;;4842911;29;20042;-67
2024/02/24 00:12:56;;;;;;;2.40;1.00;;;;;7.20;96629.00;;;;4842766;29;20100;-66
2024/02/24 00:15:23;;;;;;;1.45;1.08;;;;;7.20;96631.00;;;;4842740;29;20464;-66
2024/02/24 00:17:49;;;;;;;1.10;0.90;;;;;7.20;96631.00;;;;4856801;29;20048;-66
2024/02/24 00:20:16;;;;;;;1.33;1.00;;;;;7.20;96627.00;;;;4856901;29;20061;-66
2024/02/24 00:22:43;;;;;;;1.80;0.98;;;;;7.20;96636.00;;;;4856579;29;20050;-65
2024/02/24 00:25:10;;;;;;;1.63;0.93;;;;;7.30;96622.00;;;;4856724;29;20102;-65
2024/02/24 00:27:36;;;;;;;3.90;1.00;;;;;7.30;96630.00;;;;4856528;29;20057;-66
2024/02/24 00:30:03;;;;;;;2.42;1.40;;;;;7.20;96629.00;;;;4843381;29;20408;-66
2024/02/24 00:32:30;;;;;;;1.90;1.65;;;;;7.30;96637.00;;;;4856457;29;20114;-66
2024/02/24 00:34:57;;;;;;;1.75;1.42;;;;;7.30;96631.00;;;;4842461;29;20141;-66
2024/02/24 00:37:23;;;;;;;1.40;1.10;;;;;7.20;96620.00;;;;4842312;29;20129;-66
2024/02/24 00:39:51;;;;;;;2.28;1.20;;;;;7.20;96630.00;;;;4842339;29;20478;-66
2024/02/24 00:42:17;;;;;;;1.90;1.20;;;;;7.20;96630.00;;;;4840954;29;20496;-66
2024/02/24 00:44:44;;;;;;;2.22;1.38;;;;;7.30;96634.00;;;;4841435;29;20081;-66
2024/02/24 00:47:11;;;;;;;1.50;1.20;;;;;7.40;96634.00;;;;4842356;29;20110;-66
2024/02/24 00:49:37;;;;;;;1.77;1.50;;;;;7.40;96634.00;;;;4841034;29;20498;-66
2024/02/24 00:52:04;;;;;;;1.20;1.10;;;;;7.50;96634.00;;;;4856413;29;20140;-69
2024/02/24 00:54:31;;;;;;;1.85;1.20;;;;;7.40;96629.00;;;;4842760;29;20449;-69
2024/02/24 00:56:57;;;;;;;2.85;1.35;;;;;7.20;96625.00;;;;4842311;29;20517;-69
2024/02/24 00:59:24;;;;;;;2.00;1.45;;;;;7.10;96630.00;;;;4856496;29;20122;-69
2024/02/24 01:01:51;;;;;;;1.13;0.82;;;;;7.10;96630.00;;;;4857328;29;20400;-68
2024/02/24 01:04:17;;;;;;;1.60;1.00;;;;;7.20;96635.00;;;;4842295;29;20058;-68
2024/02/24 01:06:48;;;;;;;3.28;1.60;;;;;7.20;96640.00;;;;4843481;29;20054;-68
2024/02/24 01:09:15;;;;;;;2.13;1.20;;;;;7.20;96632.00;;;;4859515;29;20050;-68
2024/02/24 01:11:42;;;;;;;1.52;1.15;;;;;7.20;96626.00;;;;4845577;29;20045;-68
2024/02/24 01:14:09;;;;;;;1.33;0.98;;;;;7.30;96630.00;;;;4845661;29;20054;-68
2024/02/24 01:16:38;;;;;;;1.48;1.00;;;;;7.40;96633.00;;;;4859612;29;20103;-68
2024/02/24 01:19:05;;;;;;;2.70;1.00;;;;;7.40;96631.00;;;;4859539;29;20072;-68
2024/02/24 01:21:31;;;;;;;2.67;1.20;;;;;7.50;96620.00;;;;4845212;29;20057;-68
2024/02/24 01:23:58;;;;;;;2.67;1.10;;;;;7.60;96620.00;;;;4845530;29;20054;-68
2024/02/24 01:26:25;;;;;;;1.42;0.90;;;;;7.60;96619.00;;;;4845034;29;20045;-68
2024/02/24 01:28:51;;;;;;;1.33;1.05;;;;;7.50;96624.00;;;;4844066;29;20050;-68
2024/02/24 01:31:18;;;;;;;0.73;0.73;;;;;7.50;96627.00;;;;4845049;29;20460;-68
2024/02/24 01:33:45;;;;;;;1.65;0.88;;;;;7.50;96630.00;;;;4844968;29;20125;-68
2024/02/24 01:36:11;;;;;;;2.63;0.85;;;;;7.50;96629.00;;;;4845005;29;20053;-68
2024/02/24 01:38:38;;;;;;;2.55;0.80;;;;;7.50;96632.00;;;;4844841;29;20081;-68
2024/02/24 01:41:05;;;;;;;0.95;0.70;;;;;7.40;96633.00;;;;4844925;29;20054;-68
2024/02/24 01:43:37;;;;;;;1.17;0.77;;;;;7.40;96627.00;;;;4859049;29;20060;-68
2024/02/24 01:46:06;;;;;;;2.40;0.90;;;;;7.40;96617.00;;;;4843637;29;20061;-68
2024/02/24 01:48:34;;;;;;;2.55;1.50;;;;;7.40;96618.00;;;;4844911;29;20445;-69
2024/02/24 01:51:01;;;;;;;2.83;1.05;;;;;7.40;96634.00;;;;4844494;29;20478;-68
2024/02/24 01:53:29;;;;;;;1.83;1.20;;;;;7.30;96621.00;;;;4844576;29;20061;-68
2024/02/24 01:55:59;;;;;;;1.10;1.00;;;;;7.30;96621.00;;;;4859550;29;20046;-68
2024/02/24 01:58:28;;;;;;;1.80;1.00;;;;;7.30;96622.00;;;;4858681;29;20125;-68
2024/02/24 02:00:55;;;;;;;1.65;1.20;;;;;7.20;96631.00;;;;4844380;29;20452;-68
2024/02/24 02:03:21;;;;;;;1.63;1.13;;;;;7.10;96621.00;;;;4858690;29;20049;-69
2024/02/24 02:05:49;;;;;;;2.08;1.25;;;;;7.10;96627.00;;;;4858916;29;20054;-69
2024/02/24 02:08:16;;;;;;;2.85;1.05;;;;;7.00;96628.00;;;;4844319;29;20133;-69
2024/02/24 02:10:46;;;;;;;1.45;0.95;;;;;7.00;96633.00;;;;4844275;29;20073;-69
2024/02/24 02:13:13;;;;;;;2.05;1.00;;;;;7.00;96629.00;;;;4844291;29;20050;-69
2024/02/24 02:15:41;;;;;;;1.77;1.02;;;;;7.00;96632.00;;;;4843163;29;20144;-69
2024/02/24 02:18:08;;;;;;;2.08;1.00;;;;;7.00;96633.00;;;;4858396;29;20117;-69
2024/02/24 02:20:34;;;;;;;1.08;0.98;;;;;7.00;96640.00;;;;4844398;29;20083;-69
2024/02/24 02:23:02;;;;;;;1.27;1.00;;;;;7.10;96631.00;;;;4843455;29;20456;-69
2024/02/24 02:25:28;;;;;;;1.27;1.13;;;;;7.10;96636.00;;;;4858224;29;20060;-69
2024/02/24 02:27:55;;;;;;;1.17;1.08;;;;;7.00;96631.00;;;;4842858;29;20423;-69
2024/02/24 02:30:21;;;;;;;2.45;1.20;;;;;7.00;96644.00;;;;4858308;29;20436;-69
2024/02/24 02:32:48;;;;;;;1.80;1.00;;;;;7.00;96638.00;;;;4843827;29;20064;-69
2024/02/24 02:35:15;;;;;;;2.92;1.50;;;;;7.00;96648.00;;;;4843863;29;20046;-69
2024/02/24 02:37:42;;;;;;;2.95;1.40;;;;;7.00;96651.00;;;;4844440;29;20046;-69
2024/02/24 02:40:09;;;;;;;1.30;1.08;;;;;7.00;96648.00;;;;4842613;29;20132;-69
2024/02/24 02:42:35;;;;;;;2.40;1.50;;;;;7.00;96650.00;;;;4842875;29;20452;-69
2024/02/24 02:45:03;;;;;;;3.05;1.30;;;;;6.90;96664.00;;;;4843817;29;20049;-69
2024/02/24 02:47:30;;;;;;;2.45;1.63;;;;;6.90;96654.00;;;;4857949;29;20054;-69
2024/02/24 02:49:57;;;;;;;1.98;1.40;;;;;6.90;96649.00;;;;4843822;29;20049;-69
2024/02/24 02:52:23;;;;;;;1.38;1.15;;;;;6.90;96656.00;;;;4843406;29;20131;-68
2024/02/24 02:54:50;;;;;;;1.52;1.10;;;;;6.90;96658.00;;;;4843618;29;20052;-68
2024/02/24 02:57:17;;;;;;;1.55;1.13;;;;;6.80;96658.00;;;;4857660;29;20114;-68
2024/02/24 02:59:43;;;;;;;2.63;1.30;;;;;6.90;96661.00;;;;4857695;29;20049;-68
2024/02/24 03:02:10;;;;;;;0.90;0.90;;;;;6.90;96660.00;;;;4857639;29;20144;-68
2024/02/24 03:04:37;;;;;;;2.88;1.10;;;;;7.00;96650.00;;;;4859151;29;20058;-68
2024/02/24 03:07:03;;;;;;;4.57;1.45;;;;;7.00;96654.00;;;;4843422;29;20050;-68
2024/02/24 03:09:30;;;;;;;1.33;1.10;;;;;7.10;96648.00;;;;4843762;29;20060;-68
2024/02/24 03:11:56;;;;;;;1.45;1.10;;;;;7.10;96648.00;;;;4844215;29;20133;-68
2024/02/24 03:14:23;;;;;;;2.53;1.23;;;;;7.10;96650.00;;;;4842188;29;20423;-68
2024/02/24 03:16:50;;;;;;;1.42;1.23;;;;;7.00;96646.00;;;;4857752;29;20084;-68
2024/02/24 03:19:16;;;;;;;1.55;0.90;;;;;6.90;96657.00;;;;4843706;29;20125;-68
2024/02/24 03:21:43;;;;;;;2.20;1.08;;;;;6.80;96662.00;;;;4861078;29;20066;-68
2024/02/24 03:24:10;;;;;;;2.53;1.00;;;;;6.70;96660.00;;;;4846127;29;20074;-68
2024/02/24 03:26:39;;;;;;;3.92;0.88;;;;;6.80;96662.00;;;;4846248;29;20130;-68
2024/02/24 03:29:05;;;;;;;2.08;1.40;;;;;6.80;96669.00;;;;4847974;29;20049;-68
2024/02/24 03:31:32;;;;;;;0.80;0.80;;;;;6.80;96664.00;;;;4860439;29;20102;-68
2024/02/24 03:33:58;;;;;;;0.77;0.77;;;;;6.80;96657.00;;;;4846447;29;20071;-68
2024/02/24 03:36:26;;;;;;;3.08;1.35;;;;;6.90;96657.00;;;;4844669;29;20106;-68
2024/02/24 03:38:52;;;;;;;1.35;0.90;;;;;6.90;96653.00;;;;4864652;29;20067;-66
2024/02/24 03:41:19;;;;;;;1.50;1.08;;;;;7.00;96657.00;;;;4862474;29;20083;-66
2024/02/24 03:43:46;;;;;;;1.80;0.88;;;;;7.00;96664.00;;;;4864639;29;20061;-66
2024/02/24 03:46:12;;;;;;;1.13;0.90;;;;;7.00;96663.00;;;;4861925;29;20164;-66
2024/02/24 03:48:39;;;;;;;0.80;0.80;;;;;7.20;96669.00;;;;4863365;29;20081;-68
2024/02/24 03:51:06;;;;;;;1.13;1.00;;;;;7.20;96675.00;;;;4846278;29;20046;-68
2024/02/24 03:53:32;;;;;;;1.33;0.80;;;;;7.20;96671.00;;;;4847159;29;20105;-68
2024/02/24 03:55:59;;;;;;;1.25;0.80;;;;;7.20;96673.00;;;;4847667;29;20419;-68
2024/02/24 03:58:25;;;;;;;3.80;1.02;;;;;7.10;96676.00;;;;4847592;29;20050;-68
2024/02/24 04:00:52;;;;;;;2.38;1.23;;;;;7.10;96674.00;;;;4844035;29;20082;-68
2024/02/24 04:03:19;;;;;;;1.55;0.80;;;;;7.10;96668.00;;;;4845860;29;20061;-68
2024/02/24 04:05:48;;;;;;;1.30;0.80;;;;;7.00;96665.00;;;;4857170;29;20089;-68
2024/02/24 04:08:15;;;;;;;1.35;0.75;;;;;6.90;96666.00;;;;4841412;29;20106;-68
2024/02/24 04:10:45;;;;;;;0.98;0.88;;;;;6.80;96660.00;;;;4842402;29;20129;-68
2024/02/24 04:13:12;;;;;;;1.17;0.80;;;;;6.70;96656.00;;;;4842454;29;20124;-66
2024/02/24 04:15:45;;;;;;;0.95;0.68;;;;;6.70;96640.00;;;;4841312;29;20058;-66
2024/02/24 04:18:12;;;;;;;1.58;0.85;;;;;6.60;96646.00;;;;4856777;29;20057;-66
2024/02/24 04:20:40;;;;;;;2.42;0.70;;;;;6.60;96654.00;;;;4841319;29;20042;-66
2024/02/24 04:23:07;;;;;;;0.73;0.65;;;;;6.70;96667.00;;;;4856685;29;20081;-66
2024/02/24 04:25:33;;;;;;;0.65;0.65;;;;;6.80;96674.00;;;;4856661;29;20054;-66
2024/02/24 04:28:00;;;;;;;3.20;1.10;;;;;7.00;96670.00;;;;4841321;29;20054;-66
2024/02/24 04:30:27;;;;;;;1.10;0.80;;;;;7.10;96667.00;;;;4842495;29;20121;-66
2024/02/24 04:32:54;;;;;;;1.00;0.77;;;;;7.10;96670.00;;;;4842357;29;20046;-66
2024/02/24 04:35:21;;;;;;;0.90;0.70;;;;;7.20;96678.00;;;;4842446;29;20046;-66
2024/02/24 04:37:48;;;;;;;1.30;0.93;;;;;7.10;96672.00;;;;4856586;29;20427;-66
2024/02/24 04:40:15;;;;;;;1.65;0.80;;;;;7.20;96667.00;;;;4842376;29;20045;-66
2024/02/24 04:42:41;;;;;;;1.63;0.80;;;;;7.10;96664.00;;;;4845528;29;20125;-66
2024/02/24 04:45:08;;;;;;;1.08;0.63;;;;;7.00;96655.00;;;;4860147;29;20109;-66
2024/02/24 04:47:35;;;;;;;0.82;0.80;;;;;7.10;96658.00;;;;4844974;29;20419;-66
2024/02/24 04:50:02;;;;;;;1.30;0.80;;;;;7.10;96672.00;;;;4844622;29;20126;-66
2024/02/24 04:52:29;;;;;;;1.23;0.80;;;;;7.00;96673.00;;;;4844602;29;20064;-66
2024/02/24 04:54:55;;;;;;;1.48;0.75;;;;;7.00;96665.00;;;;4846384;29;20084;-66
2024/02/24 04:57:22;;;;;;;1.58;0.90;;;;;7.00;96659.00;;;;4860036;29;20054;-66
2024/02/24 04:59:49;;;;;;;0.80;0.80;;;;;6.90;96665.00;;;;4844411;29;20045;-66
2024/02/24 05:02:15;;;;;;;2.15;0.90;;;;;7.00;96673.00;;;;4844357;29;20430;-66
2024/02/24 05:04:42;;;;;;;1.73;1.00;;;;;7.10;96692.00;;;;4859920;29;20045;-68
2024/02/24 05:07:09;;;;;;;1.42;0.80;;;;;7.10;96693.00;;;;4859672;29;20479;-70
2024/02/24 05:09:35;;;;;;;2.58;2.00;;;;;7.20;96697.00;;;;4859583;29;20081;-70
2024/02/24 05:12:02;;;;;;;2.28;1.10;;;;;7.30;96688.00;;;;4845380;29;20049;-66
2024/02/24 05:14:29;;;;;;;1.00;0.60;;;;;7.20;96690.00;;;;4859727;29;20094;-66
2024/02/24 05:16:55;;;;;;;1.25;0.70;;;;;7.30;96702.00;;;;4860385;29;20397;-66
2024/02/24 05:19:22;;;;;;;2.13;0.80;;;;;7.40;96704.00;;;;4860000;29;20102;-66
2024/02/24 05:21:48;;;;;;;1.55;0.80;;;;;7.40;96707.00;;;;4860799;29;20407;-66
2024/02/24 05:24:16;;;;;;;0.82;0.70;;;;;7.30;96704.00;;;;4860290;29;20077;-66
2024/02/24 05:26:43;;;;;;;1.75;0.90;;;;;7.40;96707.00;;;;4859992;29;20053;-66
2024/02/24 05:29:10;;;;;;;0.60;0.60;;;;;7.40;96714.00;;;;4845623;29;20060;-66
2024/02/24 05:31:37;;;;;;;0.80;0.80;;;;;7.40;96716.00;;;;4859767;29;20110;-66
2024/02/24 05:34:05;;;;;;;2.97;1.27;;;;;7.30;96713.00;;;;4859573;29;20149;-66
2024/02/24 05:36:32;;;;;;;1.00;0.70;;;;;7.20;96717.00;;;;4859254;29;20124;-66
2024/02/24 05:38:59;;;;;;;1.88;0.85;;;;;7.20;96725.00;;;;4844028;29;20118;-66
2024/02/24 05:41:25;;;;;;;2.35;1.08;;;;;7.10;96730.00;;;;4859441;29;20131;-66
2024/02/24 05:43:52;;;;;;;2.00;0.80;;;;;7.10;96721.00;;;;4859263;29;20140;-66
2024/02/24 05:46:19;;;;;;;0.93;0.80;;;;;7.10;96728.00;;;;4843877;29;20079;-66
2024/02/24 05:48:46;;;;;;;2.85;1.05;;;;;7.20;96740.00;;;;4844248;29;20145;-66
2024/02/24 05:51:13;;;;;;;1.95;0.70;;;;;7.10;96736.00;;;;4844766;29;20053;-66
2024/02/24 05:53:40;;;;;;;2.30;0.90;;;;;7.00;96743.00;;;;4845181;29;20046;-66
2024/02/24 05:56:07;;;;;;;1.00;0.82;;;;;7.00;96742.00;;;;4845637;29;20459;-66
2024/02/24 05:58:34;;;;;;;1.08;0.70;;;;;7.10;96743.00;;;;4843917;29;20046;-66
2024/02/24 06:01:02;;;;;;;1.17;0.80;;;;;7.00;96753.00;;;;4859220;29;20475;-66
2024/02/24 06:03:29;;;;;;;1.00;0.80;;;;;7.10;96749.00;;;;4860176;29;20427;-66
2024/02/24 06:05:56;;;;;;;1.98;1.15;;;;;7.10;96751.00;;;;4860056;29;20049;-66
2024/02/24 06:08:22;;;;;;;1.48;1.05;;;;;7.10;96750.00;;;;4845007;29;20102;-67
2024/02/24 06:10:49;;;;;;;3.83;0.93;;;;;7.00;96753.00;;;;4845116;29;20042;-66
2024/02/24 06:13:16;;;;;;;0.70;0.70;;;;;7.00;96759.00;;;;4844782;29;20459;-66
2024/02/24 06:15:42;;;;;;;0.60;0.60;;;;;6.90;96764.00;;;;4858837;29;20061;-66
2024/02/24 06:18:09;;;;;;;2.33;0.70;;;;;6.90;96763.00;;;;4858945;29;20570;-66
2024/02/24 06:20:36;;;;;;;0.90;0.80;;;;;6.90;96764.00;;;;4858728;29;20073;-68
2024/02/24 06:23:03;;;;;;;0.80;0.70;;;;;7.00;96770.00;;;;4842936;29;20149;-68
2024/02/24 06:25:30;;;;;;;1.40;0.93;;;;;7.00;96772.00;;;;4859442;29;20052;-69
2024/02/24 06:27:58;;;;;;;0.90;0.90;;;;;6.90;96770.00;;;;4859058;29;20046;-68
2024/02/24 06:30:25;;;;;;;2.17;1.20;;;;;6.90;96776.00;;;;4842880;29;20448;-68
2024/02/24 06:32:51;;;;;;;1.00;0.88;;;;;7.00;96780.00;;;;4844035;29;20132;-69
2024/02/24 06:35:18;;;;;;;3.20;1.55;;;;;6.90;96783.00;;;;4844247;29;20054;-69
2024/02/24 06:37:44;;;;;;;1.50;1.17;;;;;6.90;96787.00;;;;4843057;29;20058;-69
2024/02/24 06:40:11;;;;;;;2.35;1.38;;;;;6.90;96797.00;;;;4858211;29;20133;-69
2024/02/24 06:42:41;;;;;;;2.72;1.50;;;;;6.90;96797.00;;;;4858010;29;20086;-69
2024/02/24 06:45:08;;;;;;;1.98;1.13;;;;;7.00;96805.00;;;;4842640;29;20077;-69
2024/02/24 06:47:34;;;;;;;3.78;1.70;;;;;7.00;96810.00;;;;4843354;29;20380;-69
2024/02/24 06:50:01;;;;;;;3.30;2.25;;;;;7.10;96808.00;;;;4858314;29;20050;-69
2024/02/24 06:52:28;;;;;;;2.40;1.35;;;;;7.10;96813.00;;;;4857648;29;20049;-69
2024/02/24 06:54:54;;;;;;;5.07;2.00;;;;;7.20;96815.00;;;;4844021;29;20069;-69
2024/02/24 06:57:21;;;;;;;2.10;1.50;;;;;7.20;96821.00;;;;4843623;29;20050;-69
2024/02/24 06:59:47;;;;;;;3.00;1.65;;;;;7.20;96825.00;;;;4843830;29;20042;-70
2024/02/24 07:02:14;;;;;;;2.05;1.02;;;;;7.20;96829.00;;;;4843797;29;20124;-69
2024/02/24 07:04:42;;;;;;;2.25;1.10;;;;;7.10;96836.00;;;;4843006;29;20057;-69
2024/02/24 07:07:09;;;;;;;1.23;0.93;;;;;7.00;96828.00;;;;4843554;29;20061;-67
2024/02/24 07:09:36;;;;;;;1.83;1.02;;;;;7.00;96844.00;;;;4843881;29;20049;-68
2024/02/24 07:12:03;;;;;;;1.02;0.80;;;;;7.00;96839.00;;;;4843283;29;20050;-67
2024/02/24 07:14:30;;;;;;;0.60;0.60;;;;;6.90;96847.00;;;;4857425;29;20404;-68
2024/02/24 07:16:57;;;;;;;1.08;0.85;;;;;6.80;96856.00;;;;4842097;29;20054;-68
2024/02/24 07:19:23;;;;;;;0.82;0.82;;;;;6.80;96863.00;;;;4843285;29;20078;-68
2024/02/24 07:21:50;;;;;;;3.05;1.20;;;;;6.80;96864.00;;;;4857232;29;20054;-68
2024/02/24 07:24:17;;;;;;;1.40;1.00;;;;;6.80;96871.00;;;;4844406;29;20042;-68
2024/02/24 07:26:46;;;;;;;1.23;1.10;;;;;6.70;96872.00;;;;4843929;29;20459;-68
2024/02/24 07:29:16;;;;;;;2.00;1.80;;;;;6.70;96892.00;;;;4857423;29;20106;-67
2024/02/24 07:31:43;;;;;;;1.27;1.00;;;;;6.60;96882.00;;;;4843038;29;20109;-67
2024/02/24 07:34:10;;;;;;;1.02;0.85;;;;;6.60;96887.00;;;;4858328;29;20369;-67
2024/02/24 07:36:37;;;;;;;0.52;0.50;;;;;6.60;96896.00;;;;4843408;29;20120;-67
2024/02/24 07:39:04;;;;;;;0.50;0.50;;;;;6.50;96904.00;;;;4842979;29;20053;-67
2024/02/24 07:41:31;;;;;;;0.80;0.80;;;;;6.50;96909.00;;;;4857085;29;20053;-68
2024/02/24 07:43:58;;;;;;;0.93;0.65;;;;;6.50;96915.00;;;;4841743;29;20058;-67
2024/02/24 07:46:29;;;;;;;0.50;0.50;;;;;6.50;96922.00;;;;4843512;29;20553;-68
2024/02/24 07:48:57;;;;;;;0.63;0.60;;;;;6.50;96935.00;;;;4857199;29;20073;-67
2024/02/24 07:51:24;;;;;;;1.50;1.10;;;;;6.50;96948.00;;;;4842667;29;20073;-67
2024/02/24 07:53:51;;;;;;;1.27;1.00;;;;;6.50;96948.00;;;;4856978;29;20089;-68
2024/02/24 07:56:20;;;;;;;1.58;1.05;;;;;6.50;96957.00;;;;4856905;29;20050;-68
2024/02/24 07:58:47;;;;;;;1.00;0.82;;;;;6.50;96968.00;;;;4857038;29;20053;-69
2024/02/24 08:01:13;;;;;;;1.33;0.80;;;;;6.40;96965.00;;;;4856723;29;20132;-68
2024/02/24 08:03:40;;;;;;;1.20;1.10;;;;;6.40;96957.00;;;;4841681;29;20058;-68
2024/02/24 08:06:07;;;;;;;0.60;0.60;;;;;6.40;96969.00;;;;4842830;29;20052;-67
2024/02/24 08:08:35;;;;;;;0.90;0.80;;;;;6.30;96977.00;;;;4842672;29;20054;-69
2024/02/24 08:11:02;;;;;;;1.05;0.70;;;;;6.30;96982.00;;;;4856797;29;20117;-68
2024/02/24 08:13:28;;;;;;;0.88;0.88;;;;;6.40;96986.00;;;;4842557;29;20070;-69
2024/02/24 08:15:55;;;;;;;0.70;0.70;;;;;6.50;96988.00;;;;4844446;29;20054;-69
2024/02/24 08:18:22;;;;;;;1.75;0.70;;;;;6.60;96993.00;;;;4847058;29;20049;-69
2024/02/24 08:20:49;;;;;;;0.70;0.55;;;;;6.70;96990.00;;;;4846472;29;20045;-68
2024/02/24 08:23:16;;;;;;;0.60;0.60;;;;;6.90;96998.00;;;;4846657;29;20054;-69
2024/02/24 08:25:43;;;;;;;0.95;0.90;;;;;6.90;97002.00;;;;4846564;29;20054;-68
2024/02/24 08:28:10;;;;;;;0.60;0.50;;;;;6.80;97005.00;;;;4847329;29;20484;-68
2024/02/24 08:30:36;;;;;;;0.82;0.70;;;;;6.80;96997.00;;;;4845321;29;20106;-69
2024/02/24 08:33:03;;;;;;;2.45;1.30;;;;;6.80;97004.00;;;;4860970;29;20462;-69
2024/02/24 08:35:30;;;;;;;2.08;0.70;;;;;6.70;97008.00;;;;4845483;29;20057;-69
2024/02/24 08:37:57;;;;;;;1.60;1.20;;;;;6.70;97015.00;;;;4861074;29;20073;-68
2024/02/24 08:40:24;;;;;;;2.00;1.52;;;;;6.80;97016.00;;;;4860802;29;20053;-68
2024/02/24 08:42:50;;;;;;;2.13;1.38;;;;;6.90;97022.00;;;;4860468;29;20061;-67
2024/02/24 08:45:17;;;;;;;1.15;0.98;;;;;7.10;97022.00;;;;4861723;29;20470;-67
2024/02/24 08:47:43;;;;;;;1.52;1.00;;;;;7.30;97028.00;;;;4846242;29;20057;-68
2024/02/24 08:50:10;;;;;;;0.70;0.70;;;;;7.40;97041.00;;;;4846239;29;20041;-68
2024/02/24 08:52:37;;;;;;;1.63;1.05;;;;;7.50;97042.00;;;;4846234;29;20449;-68
2024/02/24 08:55:15;;;;;;;2.00;1.27;;;;;7.50;97050.00;;;;4860432;29;20061;-68
2024/02/24 08:57:42;;;;;;;2.08;0.93;;;;;7.50;97047.00;;;;4860379;29;20046;-68
2024/02/24 09:00:09;;;;;;;1.25;1.00;;;;;7.60;97049.00;;;;4846797;29;20052;-69
2024/02/24 09:02:36;;;;;;;0.82;0.75;;;;;7.70;97056.00;;;;4846257;29;20054;-69
2024/02/24 09:05:03;;;;;;;1.90;0.63;;;;;7.80;97064.00;;;;4860412;29;20154;-69
2024/02/24 09:07:30;;;;;;;1.10;0.80;;;;;8.10;97059.00;;;;4846245;29;20115;-69
2024/02/24 09:09:56;;;;;;;1.48;0.70;;;;;8.30;97061.00;;;;4860391;29;20058;-67
2024/02/24 09:12:26;;;;;;;1.98;1.05;;;;;8.30;97064.00;;;;4845504;29;20045;-68
2024/02/24 09:14:53;;;;;;;1.95;1.38;;;;;8.40;97064.00;;;;4846158;29;20415;-66
2024/02/24 09:17:20;;;;;;;2.13;0.98;;;;;8.40;97062.00;;;;4845853;29;20512;-67
2024/02/24 09:19:46;;;;;;;2.03;1.10;;;;;8.40;97070.00;;;;4846108;29;20129;-66
2024/02/24 09:22:13;;;;;;;2.10;0.90;;;;;8.30;97077.00;;;;4845933;29;20057;-66
2024/02/24 09:24:40;;;;;;;4.70;1.02;;;;;8.10;97081.00;;;;4844681;29;20138;-67
2024/02/24 09:27:06;;;;;;;1.48;0.95;;;;;8.10;97084.00;;;;4845166;29;20050;-68
2024/02/24 09:29:33;;;;;;;0.90;0.90;;;;;8.20;97083.00;;;;4844669;29;20054;-68
2024/02/24 09:31:59;;;;;;;1.00;0.85;;;;;8.20;97092.00;;;;4845436;29;20453;-68
2024/02/24 09:34:26;;;;;;;1.50;1.13;;;;;8.30;97096.00;;;;4859665;29;20056;-68
2024/02/24 09:36:55;;;;;;;0.90;0.90;;;;;8.50;97084.00;;;;4844896;29;20511;-69
2024/02/24 09:39:21;;;;;;;1.63;1.20;;;;;8.80;97097.00;;;;4859271;29;20054;-69
2024/02/24 09:41:48;;;;;;;1.05;0.90;;;;;8.80;97106.00;;;;4845288;29;20102;-67
2024/02/24 09:44:16;;;;;;;2.05;0.90;;;;;8.60;97117.00;;;;4845563;29;20457;-68
2024/02/24 09:46:43;;;;;;;0.98;0.90;;;;;8.50;97124.00;;;;4859686;29;20496;-69
2024/02/24 09:49:12;;;;;;;2.00;1.10;;;;;8.30;97128.00;;;;4859195;29;20062;-68
2024/02/24 09:51:43;;;;;;;3.33;1.30;;;;;8.30;97119.00;;;;4843353;29;20054;-68
2024/02/24 09:54:12;;;;;;;3.47;1.60;;;;;8.40;97116.00;;;;4843710;29;20080;-68
2024/02/24 09:56:41;;;;;;;3.17;1.23;;;;;8.30;97132.00;;;;4859127;29;20046;-68
2024/02/24 09:59:09;;;;;;;1.13;1.00;;;;;8.20;97132.00;;;;4858795;29;20046;-68
2024/02/24 10:01:36;;;;;;;2.92;1.75;;;;;8.20;97133.00;;;;4858661;29;20042;-68
2024/02/24 10:04:03;;;;;;;4.85;1.67;;;;;8.20;97141.00;;;;4858815;29;20106;-69
2024/02/24 10:06:33;;;;;;;3.45;1.40;;;;;8.30;97139.00;;;;4859069;29;20095;-69
2024/02/24 10:09:01;;;;;;;2.60;1.48;;;;;8.50;97133.00;;;;4843379;29;20065;-69
2024/02/24 10:11:28;;;;;;;5.03;1.27;;;;;8.80;97138.00;;;;4858497;29;20133;-68
2024/02/24 10:13:55;;;;;;;3.80;1.50;;;;;9.20;97141.00;;;;4843483;29;20042;-69
2024/02/24 10:16:25;;;;;;;2.60;1.17;;;;;9.40;97147.00;;;;4844532;29;20503;-69
2024/02/24 10:18:51;;;;;;;1.42;1.23;;;;;9.50;97133.00;;;;4859175;29;20050;-69
2024/02/24 10:21:18;;;;;;;1.42;1.33;;;;;9.50;97140.00;;;;4844583;29;20042;-69
2024/02/24 10:23:46;;;;;;;2.08;1.00;;;;;9.70;97148.00;;;;4859063;29;20050;-69
2024/02/24 10:26:13;;;;;;;3.38;0.75;;;;;9.80;97160.00;;;;4843826;29;20507;-69
2024/02/24 10:28:39;;;;;;;2.47;1.00;;;;;9.80;97151.00;;;;4843466;29;20101;-69
2024/02/24 10:31:06;;;;;;;3.10;1.10;;;;;9.70;97150.00;;;;4844416;29;20050;-70
2024/02/24 10:33:34;;;;;;;1.52;0.80;;;;;9.60;97137.00;;;;4844565;29;20078;-69
2024/02/24 10:36:05;;;;;;;1.35;0.85;;;;;9.60;97139.00;;;;4858493;29;20074;-69
2024/02/24 10:38:33;;;;;;;3.05;1.88;;;;;9.50;97139.00;;;;4857631;29;20054;-69
2024/02/24 10:41:10;;;;;;;2.53;1.80;;;;;9.70;97139.00;;;;4843044;29;20045;-69
2024/02/24 10:43:38;;;;;;;4.38;1.58;;;;;9.90;97139.00;;;;4858316;29;20130;-69
2024/02/24 10:46:04;;;;;;;5.03;2.33;;;;;10.30;97145.00;;;;4844667;29;20045;-68
2024/02/24 10:48:31;;;;;;;3.88;1.10;;;;;10.60;97154.00;;;;4858122;29;20152;-68
2024/02/24 10:50:58;;;;;;;0.73;0.73;;;;;10.90;97156.00;;;;4843941;29;20046;-69
2024/02/24 10:53:28;;;;;;;1.85;1.50;;;;;11.10;97143.00;;;;4827811;29;20054;-70
2024/02/24 10:55:58;;;;;;;2.25;1.15;;;;;11.10;97156.00;;;;4842699;29;20404;-69
2024/02/24 10:58:24;;;;;;;2.13;0.88;;;;;11.00;97147.00;;;;4858101;29;20152;-69
2024/02/24 11:00:53;;;;;;;0.63;0.60;;;;;10.90;97161.00;;;;4842605;29;20065;-69
2024/02/24 11:03:20;;;;;;;1.50;0.70;;;;;10.50;97163.00;;;;4843305;29;20058;-69
2024/02/24 11:05:48;;;;;;;2.00;0.50;;;;;10.20;97167.00;;;;4842655;29;20099;-69
2024/02/24 11:08:34;;;;;;;1.85;0.70;;;;;10.00;97164.00;;;;4843566;29;20042;-69
2024/02/24 11:11:07;;;;;;;0.80;0.60;;;;;9.90;97165.00;;;;4842402;29;20169;-69
2024/02/24 11:13:34;;;;;;;1.00;0.80;;;;;9.70;97160.00;;;;4857517;29;20057;-69
2024/02/24 11:16:01;;;;;;;1.45;0.77;;;;;9.70;97162.00;;;;4842701;29;20061;-69
2024/02/24 11:18:52;;;;;;;2.00;0.70;;;;;9.80;97160.00;;;;4858169;29;20081;-69
2024/02/24 11:21:20;;;;;;;0.70;0.70;;;;;9.90;97154.00;;;;4855137;29;20153;-70
2024/02/24 11:23:48;;;;;;;1.92;0.70;;;;;10.00;97154.00;;;;4857308;29;20106;-69
2024/02/24 11:26:16;;;;;;;1.02;0.70;;;;;9.90;97145.00;;;;4844143;29;20433;-70
2024/02/24 11:28:47;;;;;;;1.98;0.68;;;;;9.90;97153.00;;;;4843311;29;20049;-69
2024/02/24 11:31:32;;;;;;;1.35;0.70;;;;;9.90;97151.00;;;;4844382;29;20050;-69
2024/02/24 11:34:08;;;;;;;1.65;1.15;;;;;9.90;97157.00;;;;4858090;29;20056;-68
2024/02/24 11:36:38;;;;;;;0.70;0.70;;;;;9.90;97143.00;;;;4843048;29;20069;-68
2024/02/24 11:39:11;;;;;;;0.68;0.60;;;;;9.90;97137.00;;;;4857097;29;20054;-69
2024/02/24 11:41:40;;;;;;;1.65;0.88;;;;;10.00;97135.00;;;;4841810;29;20048;-69
2024/02/24 11:44:08;;;;;;;1.02;0.60;;;;;10.10;97140.00;;;;4857273;29;20046;-69
2024/02/24 11:46:36;;;;;;;2.13;0.50;;;;;10.10;97138.00;;;;4843075;29;20125;-68
2024/02/24 11:49:03;;;;;;;1.33;0.90;;;;;10.10;97148.00;;;;4857001;29;20061;-68
2024/02/24 11:51:30;;;;;;;2.00;0.60;;;;;10.10;97138.00;;;;4856526;29;20046;-68
2024/02/24 11:53:56;;;;;;;0.73;0.47;;;;;10.10;97166.00;;;;4857142;29;20077;-68
2024/02/24 11:56:25;;;;;;;3.28;0.63;;;;;10.20;97145.00;;;;4857028;29;20054;-68
2024/02/24 11:58:55;;;;;;;2.05;1.55;;;;;10.20;97163.00;;;;4857011;29;20059;-68
2024/02/24 12:01:22;;;;;;;3.15;1.33;;;;;10.10;97151.00;;;;4857180;29;20046;-68
2024/02/24 12:03:50;;;;;;;2.53;1.85;;;;;10.00;97173.00;;;;4842893;29;20046;-68
2024/02/24 12:06:18;;;;;;;1.23;0.55;;;;;9.90;97173.00;;;;4843027;29;20046;-68
2024/02/24 12:08:45;;;;;;;2.25;0.80;;;;;10.00;97169.00;;;;4842781;29;20073;-68
2024/02/24 12:11:12;;;;;;;0.75;0.63;;;;;10.00;97173.00;;;;4842891;29;20042;-68
2024/02/24 12:13:39;;;;;;;1.08;0.60;;;;;9.80;97172.00;;;;4843018;29;20050;-68
2024/02/24 12:16:06;;;;;;;0.50;0.50;;;;;9.70;97166.00;;;;4841633;29;20476;-68
2024/02/24 12:18:34;;;;;;;2.90;0.60;;;;;9.50;97171.00;;;;4856785;29;20077;-68
2024/02/24 12:21:01;;;;;;;1.13;0.60;;;;;9.50;97178.00;;;;4856579;29;20050;-68
2024/02/24 12:23:31;;;;;;;1.15;0.60;;;;;9.50;97172.00;;;;4857346;29;20061;-69
2024/02/24 12:26:18;;;;;;;2.97;0.88;;;;;9.60;97167.00;;;;4857473;29;20137;-68